Terminal Aerodrome Forecast
Issued by NWS

Home | Current Version | Previous Version | Text Only | Print | Product List | Glossary On
Versions: 1 2 3 4 5 6 7 8 9 10 11 12 13 14 15 16 17 18 19 20 21 22 23 24
638
FTUS43 KGLD 110525
TAFMCK
TAF
KMCK 110525Z 1106/1206 35006KT P6SM SKC
     FM111100 33005KT 2SM BR OVC020
     FM111400 27004KT 3SM BR BKN025
     FM111600 26008KT P6SM SCT150=

USA.gov is the U.S. government's official web portal to all federal, state and local government web resources and services.